createdAt,value
2018-04-30T00:02:04.134Z,29.80
2018-04-30T00:04:32.398Z,29.30
2018-04-30T00:06:59.992Z,29.20
2018-04-30T00:09:27.515Z,29.80
2018-04-30T00:11:54.994Z,29.30
2018-04-30T00:14:23.276Z,29.40
2018-04-30T00:16:50.736Z,29.40
2018-04-30T00:19:18.266Z,29.40
2018-04-30T00:21:45.750Z,30.10
2018-04-30T00:24:13.245Z,31.00
2018-04-30T00:26:40.836Z,29.30
2018-04-30T00:29:08.414Z,29.30
2018-04-30T00:31:36.650Z,29.30
2018-04-30T00:34:04.172Z,29.30
2018-04-30T00:36:31.660Z,30.00
2018-04-30T00:38:59.212Z,30.20
2018-04-30T00:41:26.710Z,29.80
2018-04-30T00:43:54.523Z,29.80
2018-04-30T00:46:22.258Z,29.70
2018-04-30T00:48:50.477Z,29.40
2018-04-30T00:51:17.946Z,29.30
2018-04-30T00:53:45.442Z,29.30
2018-04-30T00:56:13.756Z,29.40
2018-04-30T00:58:41.247Z,29.30
2018-04-30T01:01:08.724Z,29.30
2018-04-30T01:03:36.194Z,29.30
2018-04-30T01:06:04.522Z,29.20
2018-04-30T01:08:31.978Z,29.20
2018-04-30T01:10:59.446Z,29.20
2018-04-30T01:13:26.962Z,29.10
2018-04-30T01:15:54.526Z,29.20
2018-04-30T01:18:22.023Z,29.20
2018-04-30T01:20:49.608Z,29.20
2018-04-30T01:23:17.091Z,29.10
2018-04-30T01:25:45.357Z,29.10
2018-04-30T01:28:13.611Z,30.00
2018-04-30T01:30:41.101Z,30.00
2018-04-30T01:33:08.653Z,31.00
2018-04-30T01:35:36.922Z,29.20
2018-04-30T01:38:05.346Z,29.20
2018-04-30T01:40:32.839Z,29.20
2018-04-30T01:43:00.433Z,29.60
2018-04-30T01:45:28.675Z,29.70
2018-04-30T01:47:56.182Z,29.80
2018-04-30T01:50:23.699Z,30.00
2018-04-30T01:52:51.164Z,30.50
2018-04-30T01:55:19.439Z,30.20
2018-04-30T01:57:47.735Z,30.20
2018-04-30T02:00:15.235Z,30.40
2018-04-30T02:02:42.745Z,29.80
2018-04-30T02:05:10.979Z,29.70
2018-04-30T02:07:38.439Z,29.70
2018-04-30T02:10:05.951Z,29.00
2018-04-30T02:12:33.433Z,28.90
2018-04-30T02:15:00.909Z,28.80
2018-04-30T02:17:28.392Z,28.80
2018-04-30T02:19:56.729Z,28.70
2018-04-30T02:22:24.219Z,28.70
2018-04-30T02:24:51.717Z,30.00
2018-04-30T02:27:19.251Z,30.20
2018-04-30T02:29:47.515Z,31.20
2018-04-30T02:32:15.813Z,31.80
2018-04-30T02:34:44.639Z,32.70
2018-04-30T02:37:12.119Z,32.80
2018-04-30T02:39:39.603Z,33.80
2018-04-30T02:42:07.179Z,33.80
2018-04-30T02:44:35.432Z,33.70
2018-04-30T02:47:02.906Z,33.70
2018-04-30T02:49:31.159Z,33.70
2018-04-30T02:51:58.677Z,33.70
2018-04-30T02:54:26.191Z,32.80
2018-04-30T02:56:54.443Z,32.10
2018-04-30T02:59:21.927Z,32.20
2018-04-30T03:01:50.171Z,32.50
2018-04-30T03:04:17.667Z,32.50
2018-04-30T03:06:45.909Z,33.30
2018-04-30T03:09:13.418Z,33.30
2018-04-30T03:11:40.900Z,33.30
2018-04-30T03:14:08.409Z,33.90
2018-04-30T03:16:36.672Z,33.30
2018-04-30T03:19:04.253Z,33.30
2018-04-30T03:21:32.564Z,30.80
2018-04-30T03:24:00.749Z,29.30
2018-04-30T03:26:28.267Z,29.40
2018-04-30T03:28:56.525Z,28.60
2018-04-30T03:31:23.986Z,28.70
2018-04-30T03:33:52.267Z,28.40
2018-04-30T03:36:20.503Z,27.90
2018-04-30T03:38:48.008Z,27.90
2018-04-30T03:41:16.237Z,27.70
2018-04-30T03:43:43.732Z,27.70
2018-04-30T03:46:12.003Z,27.80
2018-04-30T03:48:39.527Z,27.70
2018-04-30T03:51:07.024Z,27.80
2018-04-30T03:53:35.257Z,27.70
2018-04-30T03:56:02.768Z,27.70
2018-04-30T03:58:30.993Z,27.70
2018-04-30T04:01:10.426Z,28.30
2018-04-30T04:03:49.912Z,27.70
2018-04-30T04:06:30.258Z,27.60
2018-04-30T04:08:57.749Z,27.60
2018-04-30T04:11:25.265Z,27.50
2018-04-30T04:13:52.774Z,27.50
2018-04-30T04:16:20.257Z,28.00
2018-04-30T04:18:47.762Z,27.70
2018-04-30T04:21:16.027Z,27.60
2018-04-30T04:23:44.308Z,28.70
2018-04-30T04:26:12.673Z,27.50
2018-04-30T04:28:40.178Z,27.50
2018-04-30T04:31:07.697Z,28.00
2018-04-30T04:33:35.215Z,27.90
2018-04-30T04:36:02.759Z,27.50
2018-04-30T04:38:30.246Z,28.10
2018-04-30T04:40:57.735Z,28.20
2018-04-30T04:43:25.323Z,28.40
2018-04-30T04:45:52.798Z,28.30
2018-04-30T04:48:20.343Z,28.90
2018-04-30T04:50:47.813Z,29.10
2018-04-30T04:53:15.299Z,29.30
2018-04-30T04:55:42.899Z,28.70
2018-04-30T04:58:11.300Z,28.80
2018-04-30T05:00:38.789Z,28.70
2018-04-30T05:03:06.298Z,28.60
2018-04-30T05:05:34.585Z,29.10
2018-04-30T05:08:02.103Z,28.60
2018-04-30T05:10:29.735Z,28.50
2018-04-30T05:12:57.369Z,28.30
2018-04-30T05:15:24.915Z,27.60
2018-04-30T05:17:53.357Z,27.30
2018-04-30T05:20:20.867Z,27.30
2018-04-30T05:22:48.329Z,27.30
2018-04-30T05:25:15.868Z,27.30
2018-04-30T05:27:44.129Z,26.50
2018-04-30T05:30:12.424Z,27.50
2018-04-30T05:32:40.866Z,26.60
2018-04-30T05:35:09.201Z,26.40
2018-04-30T05:37:36.736Z,26.40
2018-04-30T05:40:05.106Z,26.20
2018-04-30T05:42:33.415Z,26.30
2018-04-30T05:45:00.926Z,26.30
2018-04-30T05:47:28.381Z,26.30
2018-04-30T05:49:55.901Z,26.30
2018-04-30T05:52:23.382Z,26.40
2018-04-30T05:54:50.854Z,26.80
2018-04-30T05:57:18.416Z,27.10
2018-04-30T05:59:47.402Z,27.10
2018-04-30T06:02:14.909Z,27.10
2018-04-30T06:04:42.406Z,28.10
2018-04-30T06:07:09.898Z,29.50
2018-04-30T06:09:38.153Z,30.10
2018-04-30T06:12:05.781Z,30.10
2018-04-30T06:14:33.257Z,30.10
2018-04-30T06:17:00.853Z,30.40
2018-04-30T06:19:29.144Z,29.70
2018-04-30T06:21:56.651Z,29.70
2018-04-30T06:24:24.258Z,29.40
2018-04-30T06:26:51.851Z,29.30
2018-04-30T06:29:19.386Z,29.10
2018-04-30T06:31:46.905Z,28.80
2018-04-30T06:34:14.385Z,29.20
2018-04-30T06:36:42.680Z,28.50
2018-04-30T06:39:10.236Z,28.50
2018-04-30T06:41:37.740Z,28.60
2018-04-30T06:44:05.210Z,28.60
2018-04-30T06:46:32.720Z,28.60
2018-04-30T06:49:00.211Z,29.20
2018-04-30T06:51:27.713Z,28.70
2018-04-30T06:53:55.994Z,28.70
2018-04-30T06:56:24.260Z,28.70
2018-04-30T06:58:52.603Z,28.80
2018-04-30T07:01:20.071Z,28.70
2018-04-30T07:03:47.588Z,28.70
2018-04-30T07:06:15.106Z,28.70
2018-04-30T07:08:43.344Z,29.20
2018-04-30T07:11:10.850Z,28.80
2018-04-30T07:13:39.122Z,28.80
2018-04-30T07:16:07.404Z,28.80
2018-04-30T07:18:35.673Z,28.80
2018-04-30T07:21:03.903Z,28.90
2018-04-30T07:23:31.409Z,28.80
2018-04-30T07:25:59.674Z,28.80
2018-04-30T07:28:27.981Z,29.40
2018-04-30T07:30:55.459Z,28.90
2018-04-30T07:33:22.940Z,28.80
2018-04-30T07:35:50.535Z,28.90
2018-04-30T07:38:17.952Z,28.90
2018-04-30T07:40:45.575Z,28.90
2018-04-30T07:43:13.051Z,28.90
2018-04-30T07:45:42.717Z,29.00
2018-04-30T07:48:11.706Z,32.20
2018-04-30T07:50:40.019Z,34.60
2018-04-30T07:53:07.521Z,34.60
2018-04-30T07:55:35.040Z,34.00
2018-04-30T07:58:02.541Z,33.60
2018-04-30T08:00:30.153Z,34.70
2018-04-30T08:02:57.755Z,34.80
2018-04-30T08:05:25.951Z,35.00
2018-04-30T08:07:54.225Z,33.40
2018-04-30T08:10:21.725Z,33.50
2018-04-30T08:12:49.289Z,33.70
2018-04-30T08:15:16.773Z,32.60
2018-04-30T08:17:44.401Z,32.40
2018-04-30T08:20:11.894Z,32.40
2018-04-30T08:22:39.371Z,33.80
2018-04-30T08:25:06.965Z,33.30
2018-04-30T08:27:34.431Z,33.20
2018-04-30T08:30:01.937Z,32.80
2018-04-30T08:32:29.429Z,33.90
2018-04-30T08:34:57.685Z,34.30
2018-04-30T08:37:25.171Z,34.30
2018-04-30T08:39:52.679Z,35.60
2018-04-30T08:42:20.255Z,35.00
2018-04-30T08:44:47.736Z,35.00
2018-04-30T08:47:15.999Z,35.30
2018-04-30T08:49:43.508Z,36.10
2018-04-30T08:52:11.050Z,36.20
2018-04-30T08:54:39.281Z,36.30
2018-04-30T08:57:07.562Z,36.10
2018-04-30T08:59:35.060Z,36.20
2018-04-30T09:02:02.604Z,35.00
2018-04-30T09:04:30.876Z,36.10
2018-04-30T09:06:59.129Z,35.90
2018-04-30T09:09:27.442Z,36.40
2018-04-30T09:11:54.973Z,36.50
2018-04-30T09:14:22.489Z,37.00
2018-04-30T09:16:50.112Z,37.70
2018-04-30T09:19:18.399Z,37.30
2018-04-30T09:21:45.942Z,37.30
2018-04-30T09:24:14.185Z,37.40
2018-04-30T09:26:41.757Z,37.40
2018-04-30T09:29:09.330Z,37.60
2018-04-30T09:31:36.906Z,37.40
2018-04-30T09:34:04.405Z,38.00
2018-04-30T09:36:31.929Z,37.10
2018-04-30T09:38:59.441Z,36.70
2018-04-30T09:41:26.968Z,36.70
2018-04-30T09:43:54.590Z,35.70
2018-04-30T09:46:22.903Z,35.10
2018-04-30T09:48:51.206Z,35.30
2018-04-30T09:51:18.718Z,35.10
2018-04-30T09:53:46.205Z,35.10
2018-04-30T09:56:13.758Z,35.10
2018-04-30T09:58:41.246Z,35.10
2018-04-30T10:01:08.720Z,35.10
2018-04-30T10:03:36.238Z,35.10
2018-04-30T10:06:03.759Z,35.20
2018-04-30T10:08:31.983Z,35.10
2018-04-30T10:10:59.508Z,35.20
2018-04-30T10:13:27.018Z,35.20
2018-04-30T10:15:54.530Z,35.20
2018-04-30T10:18:22.028Z,34.90
2018-04-30T10:20:49.555Z,34.80
2018-04-30T10:23:17.061Z,34.90
2018-04-30T10:25:44.762Z,35.00
2018-04-30T10:28:12.241Z,35.10
2018-04-30T10:30:39.742Z,34.80
2018-04-30T10:33:07.242Z,47.40
2018-04-30T10:35:34.740Z,42.30
2018-04-30T10:38:03.886Z,40.00
2018-04-30T10:40:31.388Z,40.10
2018-04-30T10:42:58.908Z,40.00
2018-04-30T10:45:26.388Z,39.90
2018-04-30T10:47:53.850Z,39.80
2018-04-30T10:50:21.348Z,40.00
2018-04-30T10:52:49.608Z,40.10
2018-04-30T10:55:17.100Z,40.10
2018-04-30T10:57:44.642Z,40.00
2018-04-30T11:00:12.924Z,39.90
2018-04-30T11:02:41.225Z,39.80
2018-04-30T11:05:08.748Z,39.70
2018-04-30T11:07:37.075Z,39.50
2018-04-30T11:10:04.587Z,39.50
2018-04-30T11:12:32.896Z,38.30
2018-04-30T11:15:00.528Z,38.20
2018-04-30T11:17:28.784Z,39.00
2018-04-30T11:19:56.269Z,39.00
2018-04-30T11:22:23.769Z,39.00
2018-04-30T11:24:51.285Z,38.60
2018-04-30T11:27:19.528Z,38.50
2018-04-30T11:29:47.055Z,38.60
2018-04-30T11:32:14.541Z,38.50
2018-04-30T11:34:42.059Z,40.00
2018-04-30T11:37:09.694Z,38.60
2018-04-30T11:39:37.209Z,39.40
2018-04-30T11:42:04.725Z,39.30
2018-04-30T11:44:32.272Z,39.40
2018-04-30T11:46:59.808Z,39.40
2018-04-30T11:49:27.431Z,39.50
2018-04-30T11:51:54.915Z,39.30
2018-04-30T11:54:22.530Z,39.30
2018-04-30T11:56:50.027Z,39.00
2018-04-30T11:59:17.573Z,39.20
2018-04-30T12:01:45.088Z,38.70
2018-04-30T12:04:12.587Z,38.50
2018-04-30T12:06:40.103Z,38.40
2018-04-30T12:09:07.625Z,38.60
2018-04-30T12:11:35.116Z,38.60
2018-04-30T12:14:03.373Z,38.90
2018-04-30T12:16:31.770Z,38.60
2018-04-30T12:18:59.251Z,38.50
2018-04-30T12:21:26.815Z,38.70
2018-04-30T12:23:54.375Z,39.10
2018-04-30T12:26:21.903Z,38.90
2018-04-30T12:28:49.475Z,38.50
2018-04-30T12:31:16.989Z,38.40
2018-04-30T12:33:45.285Z,38.20
2018-04-30T12:36:13.554Z,38.30
2018-04-30T12:38:41.901Z,38.80
2018-04-30T12:41:09.579Z,38.80
2018-04-30T12:43:37.151Z,39.90
2018-04-30T12:46:05.437Z,37.40
2018-04-30T12:48:33.714Z,36.20
2018-04-30T12:51:02.031Z,36.30
2018-04-30T12:53:29.541Z,36.40
2018-04-30T12:55:57.910Z,37.00
2018-04-30T12:58:26.873Z,37.00
2018-04-30T13:00:54.897Z,39.80
2018-04-30T13:03:23.149Z,38.70
2018-04-30T13:05:51.432Z,38.90
2018-04-30T13:08:18.998Z,39.00
2018-04-30T13:10:46.502Z,40.10
2018-04-30T13:13:14.036Z,40.40
2018-04-30T13:15:41.563Z,38.60
2018-04-30T13:18:09.101Z,38.50
2018-04-30T13:20:36.639Z,40.40
2018-04-30T13:23:04.261Z,37.60
2018-04-30T13:25:32.551Z,40.40
2018-04-30T13:28:00.919Z,38.70
2018-04-30T13:30:29.157Z,38.20
2018-04-30T13:32:56.757Z,38.30
2018-04-30T13:35:25.005Z,37.50
2018-04-30T13:37:52.505Z,37.60
2018-04-30T13:40:20.044Z,37.50
2018-04-30T13:42:48.296Z,36.00
2018-04-30T13:45:15.779Z,36.10
2018-04-30T13:47:44.057Z,36.50
2018-04-30T13:50:12.322Z,36.00
2018-04-30T13:52:39.830Z,36.00
2018-04-30T13:55:07.329Z,35.20
2018-04-30T13:57:34.803Z,35.80
2018-04-30T14:00:02.331Z,35.20
2018-04-30T14:02:29.821Z,35.30
2018-04-30T14:04:57.397Z,35.40
2018-04-30T14:07:25.661Z,36.10
2018-04-30T14:09:53.902Z,35.80
2018-04-30T14:12:21.427Z,35.90
2018-04-30T14:14:48.990Z,35.80
2018-04-30T14:17:16.528Z,36.30
2018-04-30T14:19:44.023Z,36.30
2018-04-30T14:22:11.527Z,37.00
2018-04-30T14:24:39.762Z,36.30
2018-04-30T14:27:07.301Z,36.40
2018-04-30T14:29:34.842Z,36.60
2018-04-30T14:32:02.359Z,35.30
2018-04-30T14:34:29.854Z,36.30
2018-04-30T14:36:57.340Z,35.20
2018-04-30T14:39:24.818Z,35.40
2018-04-30T14:41:52.324Z,35.40
2018-04-30T14:44:19.867Z,35.30
2018-04-30T14:46:48.124Z,35.70
2018-04-30T14:49:15.632Z,35.40
2018-04-30T14:51:43.125Z,35.40
2018-04-30T14:54:10.629Z,35.10
2018-04-30T14:56:38.912Z,33.10
2018-04-30T14:59:06.453Z,33.20
2018-04-30T15:01:34.767Z,35.40
2018-04-30T15:04:02.498Z,35.40
2018-04-30T15:06:30.738Z,32.80
2018-04-30T15:08:58.236Z,32.80
2018-04-30T15:11:26.535Z,33.30
2018-04-30T15:13:54.248Z,33.30
2018-04-30T15:16:21.755Z,33.40
2018-04-30T15:18:49.245Z,32.30
2018-04-30T15:21:16.730Z,33.00
2018-04-30T15:23:44.436Z,34.20
2018-04-30T15:26:11.951Z,32.80
2018-04-30T15:28:39.507Z,33.10
2018-04-30T15:31:07.017Z,32.00
2018-04-30T15:33:34.551Z,32.20
2018-04-30T15:36:02.062Z,32.20
2018-04-30T15:38:29.560Z,31.40
2018-04-30T15:40:57.865Z,31.60
2018-04-30T15:43:25.367Z,31.70
2018-04-30T15:45:52.845Z,32.00
2018-04-30T15:48:21.879Z,30.30
2018-04-30T15:50:49.415Z,30.40
2018-04-30T15:53:16.908Z,29.80
2018-04-30T15:55:44.403Z,29.90
2018-04-30T15:58:11.909Z,29.90
2018-04-30T16:00:39.420Z,29.90
2018-04-30T16:03:06.907Z,29.90
2018-04-30T16:05:34.379Z,29.90
2018-04-30T16:08:01.891Z,29.90
2018-04-30T16:10:29.397Z,29.90
2018-04-30T16:12:56.873Z,30.40
2018-04-30T16:15:24.368Z,29.90
2018-04-30T16:17:52.625Z,29.90
2018-04-30T16:20:20.196Z,29.90
2018-04-30T16:22:47.627Z,29.90
2018-04-30T16:25:15.429Z,29.90
2018-04-30T16:27:43.727Z,29.90
2018-04-30T16:30:12.011Z,29.90
2018-04-30T16:32:39.506Z,29.90
2018-04-30T16:35:07.005Z,29.90
2018-04-30T16:37:35.261Z,29.90
2018-04-30T16:40:02.778Z,29.90
2018-04-30T16:42:30.305Z,29.90
2018-04-30T16:44:58.588Z,31.60
2018-04-30T16:47:26.862Z,33.00
2018-04-30T16:49:55.115Z,31.70
2018-04-30T16:52:22.597Z,31.80
2018-04-30T16:54:50.088Z,33.70
2018-04-30T16:57:17.623Z,34.40
2018-04-30T16:59:45.116Z,32.50
2018-04-30T17:02:12.628Z,35.50
2018-04-30T17:04:40.948Z,31.90
2018-04-30T17:07:08.472Z,31.90
2018-04-30T17:09:35.971Z,35.50
2018-04-30T17:12:03.588Z,35.50
2018-04-30T17:14:31.904Z,34.00
2018-04-30T17:16:59.402Z,33.90
2018-04-30T17:19:26.904Z,35.50
2018-04-30T17:21:54.403Z,35.50
2018-04-30T17:24:21.910Z,35.50
2018-04-30T17:26:49.417Z,36.40
2018-04-30T17:29:16.937Z,35.00
2018-04-30T17:31:44.430Z,35.50
2018-04-30T17:34:11.931Z,34.80
2018-04-30T17:36:39.494Z,31.10
2018-04-30T17:39:06.979Z,35.50
2018-04-30T17:41:34.494Z,33.50
2018-04-30T17:44:02.755Z,30.80
2018-04-30T17:46:30.269Z,30.80
2018-04-30T17:48:57.733Z,30.50
2018-04-30T17:51:25.255Z,30.20
2018-04-30T17:53:53.552Z,30.80
2018-04-30T17:56:21.070Z,31.00
2018-04-30T17:58:49.421Z,31.00
2018-04-30T18:01:16.946Z,31.00
2018-04-30T18:03:44.488Z,34.80
2018-04-30T18:06:11.995Z,34.00
2018-04-30T18:08:39.496Z,33.80
2018-04-30T18:11:07.774Z,37.00
2018-04-30T18:13:36.030Z,37.10
2018-04-30T18:16:03.525Z,37.20
2018-04-30T18:18:31.004Z,33.80
2018-04-30T18:20:58.510Z,35.50
2018-04-30T18:23:26.788Z,37.20
2018-04-30T18:25:54.314Z,37.20
2018-04-30T18:28:21.806Z,35.30
2018-04-30T18:30:50.072Z,35.50
2018-04-30T18:33:17.695Z,35.50
2018-04-30T18:35:45.075Z,35.50
2018-04-30T18:38:12.617Z,35.50
2018-04-30T18:40:40.116Z,32.80
2018-04-30T18:43:08.379Z,31.20
2018-04-30T18:45:35.953Z,31.20
2018-04-30T18:48:04.210Z,31.30
2018-04-30T18:50:31.690Z,31.30
2018-04-30T18:52:59.942Z,31.10
2018-04-30T18:55:27.440Z,31.00
2018-04-30T18:57:55.009Z,31.90
2018-04-30T19:00:22.547Z,31.10
2018-04-30T19:02:51.003Z,31.20
2018-04-30T19:05:19.282Z,31.40
2018-04-30T19:07:47.559Z,31.70
2018-04-30T19:10:15.837Z,31.30
2018-04-30T19:12:44.825Z,31.00
2018-04-30T19:15:12.329Z,31.10
2018-04-30T19:17:39.836Z,31.20
2018-04-30T19:20:07.360Z,31.40
2018-04-30T19:22:34.877Z,31.40
2018-04-30T19:25:03.119Z,31.30
2018-04-30T19:27:30.648Z,31.30
2018-04-30T19:29:58.143Z,31.40
2018-04-30T19:32:26.408Z,32.60
2018-04-30T19:34:54.022Z,32.60
2018-04-30T19:37:21.575Z,31.90
2018-04-30T19:39:49.133Z,31.50
2018-04-30T19:42:16.662Z,31.40
2018-04-30T19:44:44.927Z,31.80
2018-04-30T19:47:12.438Z,31.90
2018-04-30T19:49:39.938Z,31.60
2018-04-30T19:52:07.490Z,32.10
2018-04-30T19:54:35.023Z,32.50
2018-04-30T19:57:03.470Z,32.60
2018-04-30T19:59:31.774Z,34.90
2018-04-30T20:01:59.239Z,35.00
2018-04-30T20:04:26.789Z,35.00
2018-04-30T20:06:54.262Z,34.80
2018-04-30T20:09:21.740Z,34.60
2018-04-30T20:11:49.260Z,35.50
2018-04-30T20:14:16.743Z,36.60
2018-04-30T20:16:44.263Z,35.50
2018-04-30T20:19:12.564Z,25.00
2018-04-30T20:21:40.065Z,25.00
2018-04-30T20:24:07.625Z,24.80
2018-04-30T20:26:35.134Z,24.50
2018-04-30T20:29:02.677Z,23.60
2018-04-30T20:31:30.245Z,23.70
2018-04-30T20:33:57.792Z,24.20
2018-04-30T20:36:26.078Z,24.00
2018-04-30T20:38:53.610Z,24.00
2018-04-30T20:41:21.882Z,23.90
2018-04-30T20:43:49.382Z,23.90
2018-04-30T20:46:16.904Z,24.40
2018-04-30T20:48:44.494Z,23.90
2018-04-30T20:51:12.058Z,23.80
2018-04-30T20:53:39.566Z,24.30
2018-04-30T20:56:07.152Z,23.70
2018-04-30T20:58:35.426Z,24.20
2018-04-30T21:01:03.695Z,23.70
2018-04-30T21:03:31.272Z,23.70
2018-04-30T21:05:59.535Z,23.70
2018-04-30T21:08:27.781Z,23.70
2018-04-30T21:10:55.358Z,23.70
2018-04-30T21:13:22.776Z,23.80
2018-04-30T21:15:50.236Z,24.70
2018-04-30T21:18:17.757Z,24.20
2018-04-30T21:20:46.045Z,24.90
2018-04-30T21:23:13.558Z,25.00
2018-04-30T21:25:41.019Z,25.70
2018-04-30T21:28:08.510Z,25.10
2018-04-30T21:30:35.980Z,24.70
2018-04-30T21:33:03.483Z,24.90
2018-04-30T21:35:30.997Z,24.90
2018-04-30T21:37:58.496Z,25.00
2018-04-30T21:40:26.088Z,24.60
2018-04-30T21:42:54.393Z,23.90
2018-04-30T21:45:21.926Z,23.90
2018-04-30T21:47:50.245Z,23.60
2018-04-30T21:50:17.751Z,23.60
2018-04-30T21:52:45.286Z,24.40
2018-04-30T21:55:12.807Z,24.50
2018-04-30T21:57:40.277Z,24.50
2018-04-30T22:00:07.811Z,24.00
2018-04-30T22:02:35.334Z,24.20
2018-04-30T22:05:02.834Z,24.30
2018-04-30T22:07:30.360Z,24.30
2018-04-30T22:09:58.636Z,24.60
2018-04-30T22:12:26.926Z,24.40
2018-04-30T22:14:55.168Z,23.90
2018-04-30T22:17:22.687Z,23.90
2018-04-30T22:19:50.232Z,24.40
2018-04-30T22:22:17.722Z,24.70
2018-04-30T22:24:45.217Z,24.90
2018-04-30T22:27:12.756Z,24.80
2018-04-30T22:29:40.275Z,25.00
2018-04-30T22:32:07.848Z,24.90
2018-04-30T22:34:35.361Z,25.20
2018-04-30T22:37:03.776Z,25.20
2018-04-30T22:39:31.267Z,25.20
2018-04-30T22:41:58.736Z,24.80
2018-04-30T22:44:26.239Z,25.10
2018-04-30T22:46:53.778Z,24.90
2018-04-30T22:49:22.051Z,25.20
2018-04-30T22:51:50.322Z,25.20
2018-04-30T22:54:18.599Z,25.50
2018-04-30T22:56:46.090Z,25.60
2018-04-30T22:59:13.647Z,25.30
2018-04-30T23:01:41.149Z,24.90
2018-04-30T23:04:08.642Z,24.90
2018-04-30T23:06:37.028Z,25.30
2018-04-30T23:09:05.285Z,25.60
2018-04-30T23:11:33.581Z,25.50
2018-04-30T23:14:01.221Z,25.50
2018-04-30T23:16:28.901Z,26.70
2018-04-30T23:18:57.149Z,26.80
2018-04-30T23:21:24.747Z,26.80
2018-04-30T23:23:52.230Z,26.70
2018-04-30T23:26:19.720Z,26.50
2018-04-30T23:28:47.244Z,26.80
2018-04-30T23:31:14.768Z,26.50
2018-04-30T23:33:43.018Z,26.50
2018-04-30T23:36:12.016Z,26.80
2018-04-30T23:38:39.612Z,26.80
2018-04-30T23:41:07.130Z,26.60
2018-04-30T23:43:34.720Z,26.70
2018-04-30T23:46:02.992Z,26.70
2018-04-30T23:48:31.260Z,26.90
2018-04-30T23:50:59.495Z,26.90
2018-04-30T23:53:26.990Z,27.00
2018-04-30T23:55:55.300Z,26.90
2018-04-30T23:58:22.824Z,26.90
